createdAt,value
2023-03-29T00:01:36.049Z,79.60
2023-03-29T00:04:04.777Z,79.56
2023-03-29T00:06:32.559Z,79.59
2023-03-29T00:09:01.278Z,79.44
2023-03-29T00:11:32.012Z,79.60
2023-03-29T00:13:59.098Z,79.63
2023-03-29T00:16:26.210Z,79.50
2023-03-29T00:18:53.458Z,79.93
2023-03-29T00:21:20.721Z,80.02
2023-03-29T00:23:47.634Z,80.02
2023-03-29T00:26:14.463Z,79.90
2023-03-29T00:28:46.139Z,79.95
2023-03-29T00:31:14.931Z,79.83
2023-03-29T00:33:42.047Z,79.66
2023-03-29T00:36:12.143Z,79.81
2023-03-29T00:38:41.293Z,79.68
2023-03-29T00:41:08.484Z,79.68
2023-03-29T00:44:29.281Z,79.37
2023-03-29T00:46:56.129Z,79.62
2023-03-29T00:49:23.060Z,79.87
2023-03-29T00:51:50.142Z,79.96
2023-03-29T00:54:19.066Z,80.24
2023-03-29T00:56:47.620Z,80.36
2023-03-29T00:59:19.137Z,80.74
2023-03-29T01:02:01.873Z,80.96
2023-03-29T01:04:47.501Z,80.56
2023-03-29T01:07:18.179Z,80.56
2023-03-29T01:09:51.328Z,80.48
2023-03-29T01:12:20.770Z,80.43
2023-03-29T01:14:51.574Z,79.98
2023-03-29T01:17:21.388Z,80.21
2023-03-29T01:19:53.330Z,79.82
2023-03-29T01:22:33.613Z,79.88
2023-03-29T01:25:03.438Z,79.72
2023-03-29T01:28:02.692Z,79.84
2023-03-29T01:30:36.769Z,79.69
2023-03-29T01:33:12.599Z,79.29
2023-03-29T01:35:44.977Z,79.14
2023-03-29T01:38:19.049Z,78.98
2023-03-29T01:40:46.215Z,78.76
2023-03-29T01:43:19.406Z,78.75
2023-03-29T01:46:15.463Z,78.89
2023-03-29T01:48:54.142Z,78.80
2023-03-29T01:51:46.371Z,78.79
2023-03-29T01:54:20.107Z,79.08
2023-03-29T01:56:48.507Z,79.27
2023-03-29T01:59:18.267Z,79.08
2023-03-29T02:01:48.658Z,79.07
2023-03-29T02:04:20.659Z,79.11
2023-03-29T02:06:53.651Z,79.01
2023-03-29T02:09:20.790Z,79.18
2023-03-29T02:11:47.929Z,79.26
2023-03-29T02:14:17.624Z,79.90
2023-03-29T02:16:45.862Z,80.67
2023-03-29T02:19:12.859Z,81.44
2023-03-29T02:21:51.235Z,81.62
2023-03-29T02:24:20.075Z,82.10
2023-03-29T02:26:56.598Z,82.30
2023-03-29T02:29:23.643Z,82.16
2023-03-29T02:31:57.646Z,82.32
2023-03-29T02:34:38.549Z,82.11
2023-03-29T02:37:09.901Z,82.20
2023-03-29T02:39:37.674Z,82.24
2023-03-29T02:42:05.597Z,82.55
2023-03-29T02:44:35.997Z,82.93
2023-03-29T02:47:15.050Z,83.06
2023-03-29T02:49:42.597Z,83.14
2023-03-29T02:52:18.887Z,83.41
2023-03-29T02:54:46.137Z,83.63
2023-03-29T02:57:21.805Z,83.70
2023-03-29T02:59:48.936Z,83.98
2023-03-29T03:02:17.057Z,84.22
2023-03-29T03:04:44.599Z,84.09
2023-03-29T03:07:13.581Z,83.66
2023-03-29T03:09:41.253Z,83.49
2023-03-29T03:12:10.197Z,83.23
2023-03-29T03:14:38.067Z,82.96
2023-03-29T03:17:06.136Z,83.54
2023-03-29T03:19:38.867Z,84.16
2023-03-29T03:22:08.343Z,83.91
2023-03-29T03:24:36.950Z,84.08
2023-03-29T03:27:04.488Z,84.01
2023-03-29T03:29:31.776Z,84.17
2023-03-29T03:32:17.070Z,84.50
2023-03-29T03:35:05.104Z,84.93
2023-03-29T03:37:32.105Z,84.99
2023-03-29T03:39:59.304Z,84.79
2023-03-29T03:42:30.407Z,84.45
2023-03-29T03:44:58.188Z,84.24
2023-03-29T03:47:31.674Z,84.00
2023-03-29T03:50:08.007Z,83.60
2023-03-29T03:52:35.737Z,83.56
2023-03-29T03:55:09.084Z,83.38
2023-03-29T03:57:47.440Z,83.71
2023-03-29T04:00:18.650Z,83.71
2023-03-29T04:02:53.804Z,83.55
2023-03-29T04:05:22.620Z,83.80
2023-03-29T04:07:49.579Z,83.47
2023-03-29T04:10:22.866Z,83.07
2023-03-29T04:13:10.032Z,83.12
2023-03-29T04:15:57.191Z,83.24
2023-03-29T04:18:27.008Z,83.22
2023-03-29T04:20:57.013Z,83.34
2023-03-29T04:23:24.632Z,83.55
2023-03-29T04:25:56.076Z,83.02
2023-03-29T04:28:37.840Z,83.32
2023-03-29T04:31:32.668Z,83.29
2023-03-29T04:34:35.081Z,83.41
2023-03-29T04:37:09.901Z,83.46
2023-03-29T04:39:37.292Z,83.65
2023-03-29T04:42:05.278Z,83.54
2023-03-29T04:44:36.404Z,83.23
2023-03-29T04:47:04.824Z,83.64
2023-03-29T04:49:53.652Z,83.61
2023-03-29T04:52:32.741Z,84.07
2023-03-29T04:55:09.814Z,84.29
2023-03-29T04:58:16.702Z,84.57
2023-03-29T05:00:45.448Z,85.27
2023-03-29T05:03:22.076Z,85.78
2023-03-29T05:05:54.520Z,86.02
2023-03-29T05:08:21.531Z,86.29
2023-03-29T05:11:17.742Z,86.87
2023-03-29T05:13:44.845Z,86.89
2023-03-29T05:16:15.501Z,86.81
2023-03-29T05:18:42.823Z,86.54
2023-03-29T05:21:10.051Z,86.47
2023-03-29T05:23:39.044Z,86.45
2023-03-29T05:26:32.003Z,87.09
2023-03-29T05:29:02.147Z,87.05
2023-03-29T05:31:29.443Z,86.85
2023-03-29T05:33:56.570Z,86.93
2023-03-29T05:36:24.339Z,86.76
2023-03-29T05:38:51.698Z,86.53
2023-03-29T05:41:24.410Z,86.55
2023-03-29T05:44:11.622Z,86.69
2023-03-29T05:46:42.142Z,87.09
2023-03-29T05:49:11.715Z,87.53
2023-03-29T05:52:03.827Z,87.80
2023-03-29T05:54:50.534Z,88.05
2023-03-29T05:57:39.969Z,88.45
2023-03-29T06:00:33.905Z,88.88
2023-03-29T06:03:52.124Z,88.90
2023-03-29T06:06:39.385Z,88.61
2023-03-29T06:17:03.699Z,89.29
2023-03-29T06:19:38.694Z,89.48
2023-03-29T06:26:41.574Z,89.28
2023-03-29T06:29:10.876Z,89.14
2023-03-29T06:31:47.203Z,88.76
2023-03-29T06:36:23.404Z,88.44
2023-03-29T06:39:24.996Z,88.47
2023-03-29T06:47:35.421Z,88.46
2023-03-29T06:50:27.109Z,88.19
2023-03-29T07:15:49.800Z,86.14
2023-03-29T07:28:49.412Z,85.49
2023-03-29T07:38:05.057Z,84.53
2023-03-29T07:44:32.904Z,84.18
2023-03-29T07:47:54.249Z,83.65
2023-03-29T07:50:26.032Z,83.25
2023-03-29T07:53:05.718Z,83.39
2023-03-29T07:56:09.615Z,83.65
2023-03-29T07:59:09.638Z,82.89
2023-03-29T08:01:48.775Z,82.75
2023-03-29T08:05:26.057Z,82.82
2023-03-29T08:08:43.287Z,82.47
2023-03-29T08:23:31.546Z,79.71
2023-03-29T08:26:20.340Z,78.95
2023-03-29T08:29:01.410Z,78.69
2023-03-29T08:31:49.582Z,78.01
2023-03-29T08:34:20.111Z,77.98
2023-03-29T08:37:18.424Z,77.24
2023-03-29T08:39:49.605Z,77.94
2023-03-29T08:43:00.908Z,78.33
2023-03-29T08:45:34.924Z,77.94
2023-03-29T08:48:30.088Z,78.19
2023-03-29T08:51:30.580Z,78.03
2023-03-29T08:54:28.574Z,78.03
2023-03-29T08:57:17.932Z,78.32
2023-03-29T08:59:52.608Z,78.24
2023-03-29T09:02:36.808Z,77.89
2023-03-29T09:05:20.072Z,77.63
2023-03-29T09:07:58.492Z,76.79
2023-03-29T09:10:36.162Z,76.71
2023-03-29T09:13:31.504Z,76.90
2023-03-29T09:16:24.024Z,77.06
2023-03-29T09:19:06.106Z,77.21
2023-03-29T09:21:49.109Z,77.15
2023-03-29T09:25:09.356Z,76.46
2023-03-29T09:27:46.856Z,76.14
2023-03-29T09:30:43.124Z,76.41
2023-03-29T09:33:56.620Z,76.53
2023-03-29T09:37:03.235Z,76.58
2023-03-29T09:39:36.353Z,76.47
2023-03-29T09:42:09.348Z,76.27
2023-03-29T09:44:44.659Z,76.36
2023-03-29T09:47:27.147Z,76.19
2023-03-29T09:49:57.569Z,75.56
2023-03-29T09:52:25.630Z,75.84
2023-03-29T09:55:10.624Z,75.50
2023-03-29T09:58:07.985Z,75.33
2023-03-29T10:00:41.146Z,75.23
2023-03-29T10:03:33.461Z,74.94
2023-03-29T10:06:10.630Z,75.32
2023-03-29T10:08:44.380Z,75.65
2023-03-29T10:11:22.946Z,75.83
2023-03-29T10:14:07.901Z,76.22
2023-03-29T10:16:40.744Z,76.46
2023-03-29T10:19:43.396Z,76.61
2023-03-29T10:22:25.003Z,76.59
2023-03-29T10:24:58.392Z,77.12
2023-03-29T10:27:28.872Z,77.97
2023-03-29T10:30:07.009Z,78.28
2023-03-29T10:40:49.053Z,78.90
2023-03-29T10:44:16.040Z,79.79
2023-03-29T10:47:40.547Z,79.52
2023-03-29T10:50:22.396Z,79.86
2023-03-29T10:53:01.767Z,79.79
2023-03-29T10:56:33.134Z,80.19
2023-03-29T10:59:17.699Z,80.04
2023-03-29T11:05:53.057Z,80.16
2023-03-29T11:08:57.262Z,80.64
2023-03-29T11:14:26.273Z,80.79
2023-03-29T11:17:17.467Z,80.88
2023-03-29T11:20:33.930Z,80.46
2023-03-29T11:23:37.125Z,81.48
2023-03-29T11:26:30.659Z,81.69
2023-03-29T11:29:16.846Z,82.07
2023-03-29T11:32:21.619Z,82.11
2023-03-29T11:36:34.192Z,81.92
2023-03-29T11:39:39.133Z,81.37
2023-03-29T11:42:17.379Z,81.51
2023-03-29T11:44:46.943Z,81.30
2023-03-29T11:47:36.665Z,81.57
2023-03-29T11:50:06.091Z,81.73
2023-03-29T11:52:37.789Z,81.64
2023-03-29T11:55:07.707Z,81.61
2023-03-29T11:57:42.235Z,81.75
2023-03-29T12:00:38.038Z,81.83
2023-03-29T12:03:14.338Z,81.95
2023-03-29T12:05:52.118Z,81.69
2023-03-29T12:08:26.400Z,81.86
2023-03-29T12:11:24.633Z,81.99
2023-03-29T12:13:58.532Z,82.07
2023-03-29T12:16:39.459Z,81.68
2023-03-29T12:19:21.521Z,81.85
2023-03-29T12:21:50.546Z,81.81
2023-03-29T12:24:19.689Z,81.61
2023-03-29T12:26:59.478Z,81.60
2023-03-29T12:29:36.014Z,81.55
2023-03-29T12:33:01.977Z,81.32
2023-03-29T12:35:56.542Z,81.05
2023-03-29T12:39:00.959Z,80.77
2023-03-29T12:41:55.380Z,81.12
2023-03-29T12:44:50.395Z,81.34
2023-03-29T12:48:04.237Z,81.43
2023-03-29T12:51:25.715Z,81.78
2023-03-29T12:53:54.209Z,81.66
2023-03-29T12:56:23.156Z,81.24
2023-03-29T12:59:32.553Z,80.90
2023-03-29T13:02:13.308Z,80.44
2023-03-29T13:04:43.484Z,80.17
2023-03-29T13:07:23.048Z,80.33
2023-03-29T13:09:57.658Z,80.81
2023-03-29T13:12:34.647Z,80.69
2023-03-29T13:15:17.865Z,79.74
2023-03-29T13:18:03.792Z,79.15
2023-03-29T13:28:44.996Z,77.98
2023-03-29T13:36:37.121Z,78.22
2023-03-29T13:39:19.093Z,78.34
2023-03-29T13:42:35.558Z,78.25
2023-03-29T13:45:47.531Z,77.94
2023-03-29T13:48:33.564Z,77.31
2023-03-29T13:51:18.732Z,76.85
2023-03-29T13:54:01.815Z,77.11
2023-03-29T14:11:36.013Z,73.57
2023-03-29T14:14:07.766Z,73.42
2023-03-29T14:16:42.671Z,73.49
2023-03-29T14:19:18.449Z,73.64
2023-03-29T14:21:48.215Z,73.98
2023-03-29T14:24:22.359Z,73.95
2023-03-29T14:26:51.080Z,74.51
2023-03-29T14:32:20.620Z,74.15
2023-03-29T14:34:49.988Z,74.46
2023-03-29T14:37:23.074Z,74.39
2023-03-29T14:39:51.344Z,74.32
2023-03-29T14:42:21.874Z,74.42
2023-03-29T14:44:55.008Z,74.73
2023-03-29T14:47:33.407Z,74.65
2023-03-29T14:50:01.924Z,74.64
2023-03-29T14:52:31.616Z,74.40
2023-03-29T14:55:01.056Z,74.22
2023-03-29T14:57:34.404Z,73.98
2023-03-29T15:00:38.154Z,73.81
2023-03-29T15:03:13.822Z,74.24
2023-03-29T15:05:47.756Z,74.46
2023-03-29T15:08:31.066Z,74.36
2023-03-29T15:10:59.583Z,74.42
2023-03-29T15:13:28.660Z,74.60
2023-03-29T15:16:00.867Z,74.73
2023-03-29T15:18:58.713Z,74.29
2023-03-29T15:21:32.409Z,74.40
2023-03-29T15:24:04.998Z,74.76
2023-03-29T15:26:38.535Z,75.00
2023-03-29T15:29:23.806Z,75.12
2023-03-29T15:31:59.891Z,75.10
2023-03-29T15:34:31.591Z,74.60
2023-03-29T15:37:02.710Z,74.49
2023-03-29T15:39:32.539Z,74.91
2023-03-29T15:42:01.467Z,74.79
2023-03-29T15:44:33.343Z,74.87
2023-03-29T15:47:01.773Z,74.77
2023-03-29T15:49:30.432Z,74.86
2023-03-29T15:51:59.745Z,74.58
2023-03-29T15:54:29.256Z,74.33
2023-03-29T15:57:07.402Z,74.33
2023-03-29T15:59:36.680Z,74.30
2023-03-29T16:02:06.454Z,74.42
2023-03-29T16:04:35.130Z,74.59
2023-03-29T16:07:07.564Z,74.90
2023-03-29T16:09:38.550Z,75.16
2023-03-29T16:12:14.248Z,74.92
2023-03-29T16:15:18.951Z,74.68
2023-03-29T16:17:47.807Z,74.82
2023-03-29T16:20:25.121Z,74.81
2023-03-29T16:22:55.308Z,74.85
2023-03-29T16:25:24.362Z,74.87
2023-03-29T16:30:52.399Z,74.92
2023-03-29T16:34:03.342Z,74.72
2023-03-29T16:40:58.702Z,75.29
2023-03-29T16:57:17.540Z,75.02
2023-03-29T16:59:47.929Z,75.15
2023-03-29T17:02:24.166Z,74.83
2023-03-29T17:05:00.572Z,75.03
2023-03-29T17:07:31.384Z,75.05
2023-03-29T17:09:59.886Z,75.17
2023-03-29T17:12:31.308Z,75.07
2023-03-29T17:14:59.895Z,75.05
2023-03-29T17:17:32.803Z,75.34
2023-03-29T17:20:02.677Z,75.34
2023-03-29T17:22:31.661Z,75.38
2023-03-29T17:25:00.716Z,75.26
2023-03-29T17:27:30.860Z,75.47
2023-03-29T17:30:06.291Z,75.55
2023-03-29T17:36:24.752Z,75.67
2023-03-29T17:39:02.876Z,75.56
2023-03-29T17:41:58.514Z,75.60
2023-03-29T17:48:43.656Z,75.85
2023-03-29T17:51:11.660Z,76.14
2023-03-29T17:53:41.370Z,76.27
2023-03-29T17:56:13.088Z,76.18
2023-03-29T17:58:42.710Z,75.99
2023-03-29T18:01:24.335Z,75.92
2023-03-29T18:03:55.114Z,75.81
2023-03-29T18:06:22.846Z,75.99
2023-03-29T18:08:56.656Z,76.15
2023-03-29T18:11:25.274Z,75.89
2023-03-29T18:13:54.868Z,75.88
2023-03-29T18:16:26.695Z,76.09
2023-03-29T18:18:57.917Z,75.98
2023-03-29T18:21:27.115Z,75.84
2023-03-29T18:23:56.807Z,75.80
2023-03-29T18:26:24.640Z,75.74
2023-03-29T18:28:53.999Z,75.64
2023-03-29T18:31:33.508Z,75.53
2023-03-29T18:34:00.683Z,75.76
2023-03-29T18:36:31.786Z,75.88
2023-03-29T18:39:04.872Z,75.85
2023-03-29T18:41:37.293Z,75.89
2023-03-29T18:44:39.711Z,76.01
2023-03-29T18:47:11.713Z,75.65
2023-03-29T18:50:06.733Z,75.45
2023-03-29T18:59:56.632Z,75.86
2023-03-29T19:02:25.039Z,75.84
2023-03-29T19:04:52.453Z,75.94
2023-03-29T19:07:21.531Z,76.20
2023-03-29T19:09:51.174Z,76.08
2023-03-29T19:12:18.313Z,76.08
2023-03-29T19:14:49.525Z,76.31
2023-03-29T19:17:16.417Z,76.49
2023-03-29T19:19:43.737Z,76.60
2023-03-29T19:22:10.632Z,76.75
2023-03-29T19:24:38.508Z,76.83
2023-03-29T19:27:12.052Z,76.92
2023-03-29T19:29:40.647Z,76.96
2023-03-29T19:32:08.318Z,76.67
2023-03-29T19:34:36.108Z,76.68
2023-03-29T19:37:06.457Z,76.97
2023-03-29T19:39:35.355Z,76.73
2023-03-29T19:42:11.004Z,76.51
2023-03-29T19:44:38.096Z,76.47
2023-03-29T19:47:05.397Z,76.62
2023-03-29T19:49:36.567Z,76.89
2023-03-29T19:52:04.165Z,77.05
2023-03-29T19:54:31.884Z,76.96
2023-03-29T19:56:59.572Z,76.89
2023-03-29T19:59:27.545Z,77.01
2023-03-29T20:02:01.722Z,76.98
2023-03-29T20:04:36.021Z,77.00
2023-03-29T20:07:04.113Z,76.98
2023-03-29T20:09:32.192Z,77.13
2023-03-29T20:12:03.506Z,77.09
2023-03-29T20:14:32.048Z,76.89
2023-03-29T20:16:59.119Z,76.87
2023-03-29T20:19:26.445Z,77.00
2023-03-29T20:21:56.789Z,76.91
2023-03-29T20:24:24.176Z,77.24
2023-03-29T20:26:51.416Z,77.17
2023-03-29T20:29:21.657Z,76.76
2023-03-29T20:31:48.853Z,76.92
2023-03-29T20:34:18.397Z,76.93
2023-03-29T20:36:46.404Z,76.94
2023-03-29T20:39:17.707Z,77.07
2023-03-29T20:41:46.989Z,77.16
2023-03-29T20:44:16.481Z,77.09
2023-03-29T20:47:01.940Z,77.30
2023-03-29T20:49:36.574Z,77.32
2023-03-29T20:52:14.935Z,77.32
2023-03-29T20:54:43.060Z,77.39
2023-03-29T20:57:13.624Z,77.44
2023-03-29T20:59:42.375Z,77.37
2023-03-29T21:02:13.438Z,77.22
2023-03-29T21:04:44.910Z,77.08
2023-03-29T21:07:16.935Z,77.40
2023-03-29T21:09:44.262Z,77.08
2023-03-29T21:12:12.881Z,77.03
2023-03-29T21:14:41.029Z,77.17
2023-03-29T21:17:09.051Z,77.27
2023-03-29T21:19:38.565Z,77.46
2023-03-29T21:22:05.646Z,77.52
2023-03-29T21:24:50.719Z,77.49
2023-03-29T21:27:17.872Z,77.62
2023-03-29T21:29:49.019Z,77.69
2023-03-29T21:32:15.976Z,77.69
2023-03-29T21:34:43.119Z,77.90
2023-03-29T21:37:12.268Z,77.81
2023-03-29T21:39:41.499Z,77.51
2023-03-29T21:42:08.339Z,77.78
2023-03-29T21:44:35.369Z,77.89
2023-03-29T21:47:02.177Z,77.94
2023-03-29T21:49:29.288Z,78.13
2023-03-29T21:51:56.366Z,77.97
2023-03-29T21:54:23.581Z,77.95
2023-03-29T21:56:50.609Z,78.03
2023-03-29T21:59:17.528Z,78.05
2023-03-29T22:01:44.593Z,78.23
2023-03-29T22:04:14.274Z,78.41
2023-03-29T22:06:47.418Z,78.33
2023-03-29T22:09:15.552Z,78.24
2023-03-29T22:11:44.204Z,78.02
2023-03-29T22:14:15.768Z,78.07
2023-03-29T22:16:45.013Z,78.09
2023-03-29T22:19:12.183Z,78.25
2023-03-29T22:21:44.191Z,78.57
2023-03-29T22:24:11.452Z,78.65
2023-03-29T22:26:39.108Z,78.69
2023-03-29T22:29:07.800Z,78.55
2023-03-29T22:31:38.899Z,78.60
2023-03-29T22:34:05.990Z,78.87
2023-03-29T22:36:35.562Z,78.96
2023-03-29T22:39:03.542Z,78.87
2023-03-29T22:41:31.585Z,78.68
2023-03-29T22:44:00.671Z,78.77
2023-03-29T22:46:28.042Z,78.91
2023-03-29T22:48:55.251Z,78.96
2023-03-29T22:51:23.168Z,78.90
2023-03-29T22:53:50.438Z,78.83
2023-03-29T22:56:17.312Z,79.03
2023-03-29T22:58:45.205Z,79.12
2023-03-29T23:01:13.593Z,79.11
2023-03-29T23:03:40.460Z,79.21
2023-03-29T23:06:08.409Z,79.09
2023-03-29T23:08:36.704Z,79.18
2023-03-29T23:11:08.867Z,79.20
2023-03-29T23:13:41.213Z,79.31
2023-03-29T23:16:09.124Z,79.25
2023-03-29T23:18:37.057Z,79.28
2023-03-29T23:21:05.274Z,79.42
2023-03-29T23:23:33.107Z,79.59
2023-03-29T23:26:09.397Z,79.59
2023-03-29T23:30:19.924Z,79.61
2023-03-29T23:32:54.796Z,79.64
2023-03-29T23:35:23.500Z,79.67
2023-03-29T23:37:54.387Z,79.63
2023-03-29T23:40:22.614Z,79.81
2023-03-29T23:42:51.697Z,79.77
2023-03-29T23:45:19.912Z,79.70
2023-03-29T23:47:49.234Z,79.64
2023-03-29T23:50:19.221Z,79.95
2023-03-29T23:52:49.616Z,79.83
2023-03-29T23:55:18.042Z,80.11
2023-03-29T23:57:49.932Z,80.21
